createdAt,value
2022-08-18T00:01:27.355Z,9.57
2022-08-18T00:04:03.589Z,9.15
2022-08-18T00:06:32.286Z,9.30
2022-08-18T00:09:02.901Z,8.38
2022-08-18T00:11:41.097Z,8.77
2022-08-18T00:14:21.276Z,8.80
2022-08-18T00:16:51.824Z,8.68
2022-08-18T00:19:45.981Z,9.90
2022-08-18T00:22:14.902Z,7.78
2022-08-18T00:24:48.609Z,8.80
2022-08-18T00:27:21.953Z,8.98
2022-08-18T00:29:52.604Z,9.35
2022-08-18T00:32:22.978Z,8.80
2022-08-18T00:34:52.930Z,9.07
2022-08-18T00:37:22.331Z,9.27
2022-08-18T00:39:53.504Z,9.43
2022-08-18T00:42:29.027Z,9.45
2022-08-18T00:45:02.519Z,9.27
2022-08-18T00:47:33.084Z,10.43
2022-08-18T00:50:15.961Z,10.68
2022-08-18T00:52:56.377Z,9.35
2022-08-18T00:55:26.445Z,9.23
2022-08-18T00:58:01.301Z,9.60
2022-08-18T01:00:29.959Z,9.20
2022-08-18T01:03:03.541Z,10.55
2022-08-18T01:05:41.066Z,9.00
2022-08-18T01:08:12.011Z,9.75
2022-08-18T01:10:40.681Z,8.95
2022-08-18T01:13:09.213Z,8.80
2022-08-18T01:15:37.922Z,9.25
2022-08-18T01:18:28.070Z,9.32
2022-08-18T01:21:22.439Z,9.38
2022-08-18T01:23:54.762Z,10.13
2022-08-18T01:26:24.391Z,9.43
2022-08-18T01:28:52.991Z,9.85
2022-08-18T01:31:38.329Z,9.05
2022-08-18T01:34:07.542Z,8.55
2022-08-18T01:36:38.388Z,8.93
2022-08-18T01:39:09.602Z,8.87
2022-08-18T01:41:37.946Z,10.38
2022-08-18T01:44:08.790Z,9.15
2022-08-18T01:46:37.632Z,9.40
2022-08-18T01:49:08.444Z,9.55
2022-08-18T01:51:41.502Z,8.33
2022-08-18T01:54:15.703Z,9.45
2022-08-18T01:56:44.920Z,9.27
2022-08-18T01:59:14.739Z,9.50
2022-08-18T02:01:53.347Z,8.68
2022-08-18T02:04:41.363Z,9.35
2022-08-18T02:07:14.892Z,9.27
2022-08-18T02:09:45.336Z,8.60
2022-08-18T02:12:13.614Z,8.52
2022-08-18T02:14:42.271Z,8.68
2022-08-18T02:17:12.295Z,9.25
2022-08-18T02:19:43.320Z,9.98
2022-08-18T02:22:14.405Z,9.50
2022-08-18T02:24:44.336Z,8.75
2022-08-18T02:27:14.434Z,9.88
2022-08-18T02:29:42.926Z,10.30
2022-08-18T02:32:11.092Z,9.93
2022-08-18T02:34:39.325Z,9.30
2022-08-18T02:37:09.929Z,9.82
2022-08-18T02:39:40.090Z,9.68
2022-08-18T02:42:09.624Z,8.88
2022-08-18T02:44:37.790Z,9.43
2022-08-18T02:47:06.246Z,8.98
2022-08-18T02:49:34.360Z,9.70
2022-08-18T02:52:02.461Z,9.27
2022-08-18T02:54:30.583Z,8.85
2022-08-18T02:56:58.716Z,9.30
2022-08-18T02:59:31.956Z,8.60
2022-08-18T03:02:01.807Z,8.77
2022-08-18T03:04:33.439Z,9.02
2022-08-18T03:07:06.128Z,9.20
2022-08-18T03:09:36.234Z,9.50
2022-08-18T03:12:07.198Z,9.10
2022-08-18T03:14:37.340Z,9.55
2022-08-18T03:17:08.514Z,10.93
2022-08-18T03:19:37.448Z,9.60
2022-08-18T03:22:28.083Z,8.77
2022-08-18T03:25:05.884Z,8.82
2022-08-18T03:27:34.025Z,8.65
2022-08-18T03:30:04.557Z,9.23
2022-08-18T03:32:39.583Z,8.90
2022-08-18T03:35:14.853Z,8.98
2022-08-18T03:37:43.106Z,9.15
2022-08-18T03:40:21.960Z,9.48
2022-08-18T03:42:50.039Z,8.82
2022-08-18T03:45:19.691Z,9.07
2022-08-18T03:47:47.847Z,8.82
2022-08-18T03:50:15.969Z,9.50
2022-08-18T03:52:51.108Z,8.82
2022-08-18T03:55:19.496Z,9.88
2022-08-18T03:57:56.930Z,8.35
2022-08-18T04:00:28.058Z,9.23
2022-08-18T04:02:56.325Z,9.60
2022-08-18T04:05:24.447Z,9.70
2022-08-18T04:07:52.789Z,9.18
2022-08-18T04:10:21.113Z,9.13
2022-08-18T04:12:49.247Z,9.75
2022-08-18T04:15:17.684Z,9.82
2022-08-18T04:17:56.266Z,9.85
2022-08-18T04:20:33.440Z,9.20
2022-08-18T04:23:01.812Z,9.00
2022-08-18T04:25:32.861Z,9.73
2022-08-18T04:28:03.547Z,9.68
2022-08-18T04:30:32.208Z,10.30
2022-08-18T04:33:02.716Z,10.73
2022-08-18T04:35:32.115Z,11.45
2022-08-18T04:38:00.378Z,10.75
2022-08-18T04:40:29.597Z,11.82
2022-08-18T04:42:57.813Z,10.70
2022-08-18T04:45:26.187Z,11.50
2022-08-18T04:47:54.861Z,10.75
2022-08-18T04:50:25.416Z,11.10
2022-08-18T04:53:11.282Z,10.57
2022-08-18T04:55:39.384Z,9.75
2022-08-18T04:58:08.003Z,10.25
2022-08-18T05:00:36.234Z,10.73
2022-08-18T05:03:04.360Z,10.52
2022-08-18T05:05:33.913Z,9.60
2022-08-18T05:08:01.995Z,9.90
2022-08-18T05:10:30.131Z,9.68
2022-08-18T05:12:58.660Z,9.65
2022-08-18T05:15:26.972Z,9.88
2022-08-18T05:17:56.612Z,10.13
2022-08-18T05:20:26.807Z,9.90
2022-08-18T05:22:57.377Z,9.70
2022-08-18T05:25:25.519Z,10.00
2022-08-18T05:27:53.748Z,10.25
2022-08-18T05:30:22.370Z,10.18
2022-08-18T05:32:50.811Z,10.23
2022-08-18T05:35:24.511Z,10.15
2022-08-18T05:38:10.155Z,10.85
2022-08-18T05:40:38.746Z,11.38
2022-08-18T05:43:08.230Z,10.57
2022-08-18T05:45:36.877Z,10.38
2022-08-18T05:48:05.497Z,11.35
2022-08-18T05:50:38.413Z,10.65
2022-08-18T05:53:13.720Z,10.80
2022-08-18T05:56:05.355Z,11.18
2022-08-18T05:58:36.650Z,10.32
2022-08-18T06:01:09.103Z,9.63
2022-08-18T06:03:46.254Z,10.27
2022-08-18T06:06:19.450Z,9.48
2022-08-18T06:08:57.535Z,10.57
2022-08-18T06:11:25.844Z,10.50
2022-08-18T06:13:59.466Z,10.60
2022-08-18T06:16:40.004Z,11.00
2022-08-18T06:19:25.516Z,9.73
2022-08-18T06:22:03.795Z,11.20
2022-08-18T06:24:40.005Z,9.98
2022-08-18T06:27:15.618Z,10.93
2022-08-18T06:29:59.596Z,12.70
2022-08-18T06:32:43.672Z,12.93
2022-08-18T06:35:19.234Z,11.90
2022-08-18T06:38:16.085Z,13.30
2022-08-18T06:40:47.821Z,13.68
2022-08-18T06:43:18.116Z,13.52
2022-08-18T06:45:52.203Z,12.25
2022-08-18T06:48:28.463Z,12.15
2022-08-18T06:51:01.135Z,10.98
2022-08-18T06:53:55.002Z,12.88
2022-08-18T06:56:29.584Z,13.55
2022-08-18T06:59:16.107Z,13.90
2022-08-18T07:01:45.844Z,13.75
2022-08-18T07:04:37.443Z,12.85
2022-08-18T07:07:39.711Z,13.15
2022-08-18T07:10:33.981Z,13.02
2022-08-18T07:13:16.015Z,13.25
2022-08-18T07:15:45.445Z,13.68
2022-08-18T07:18:26.840Z,14.10
2022-08-18T07:20:59.309Z,13.73
2022-08-18T07:23:31.462Z,13.25
2022-08-18T07:26:08.624Z,12.63
2022-08-18T07:28:41.939Z,14.40
2022-08-18T07:31:17.768Z,14.35
2022-08-18T07:33:54.212Z,19.42
2022-08-18T07:36:26.256Z,18.42
2022-08-18T07:38:59.668Z,19.70
2022-08-18T07:41:32.898Z,20.98
2022-08-18T07:44:16.486Z,19.20
2022-08-18T07:46:51.726Z,18.67
2022-08-18T07:49:22.766Z,19.02
2022-08-18T07:51:55.870Z,19.23
2022-08-18T07:54:52.268Z,15.45
2022-08-18T07:57:28.500Z,14.95
2022-08-18T08:00:10.453Z,17.63
2022-08-18T08:02:59.334Z,17.33
2022-08-18T08:05:41.490Z,18.45
2022-08-18T08:08:25.165Z,18.58
2022-08-18T08:11:06.622Z,18.30
2022-08-18T08:13:56.044Z,18.10
2022-08-18T08:16:37.233Z,16.65
2022-08-18T08:19:14.256Z,15.95
2022-08-18T08:21:52.923Z,17.05
2022-08-18T08:24:36.914Z,17.90
2022-08-18T08:27:13.143Z,17.75
2022-08-18T08:29:58.426Z,17.88
2022-08-18T08:32:40.488Z,18.27
2022-08-18T08:35:16.195Z,19.92
2022-08-18T08:38:39.454Z,18.05
2022-08-18T08:41:03.476Z,18.38
2022-08-18T08:43:37.430Z,18.80
2022-08-18T08:46:11.190Z,18.80
2022-08-18T08:48:44.375Z,17.95
2022-08-18T08:51:30.249Z,18.98
2022-08-18T08:54:05.032Z,17.55
2022-08-18T08:56:44.048Z,19.65
2022-08-18T08:59:15.221Z,19.13
2022-08-18T09:01:54.667Z,21.23
2022-08-18T09:04:55.744Z,19.88
2022-08-18T09:07:47.267Z,20.05
2022-08-18T09:10:43.018Z,18.80
2022-08-18T09:13:30.776Z,20.35
2022-08-18T09:16:14.091Z,19.75
2022-08-18T09:18:55.865Z,21.13
2022-08-18T09:21:38.495Z,20.20
2022-08-18T09:24:16.652Z,21.25
2022-08-18T09:26:50.711Z,22.38
2022-08-18T09:29:24.266Z,22.02
2022-08-18T09:32:26.186Z,27.40
2022-08-18T09:37:45.808Z,25.98
2022-08-18T09:40:59.276Z,25.45
2022-08-18T09:43:34.565Z,25.38
2022-08-18T09:46:06.221Z,25.15
2022-08-18T09:48:37.033Z,24.27
2022-08-18T09:51:39.987Z,21.00
2022-08-18T09:57:19.617Z,20.20
2022-08-18T10:02:54.425Z,20.60
2022-08-18T10:05:29.122Z,18.92
2022-08-18T10:08:44.722Z,17.38
2022-08-18T10:11:30.536Z,13.85
2022-08-18T10:14:14.130Z,13.15
2022-08-18T10:19:55.322Z,11.73
2022-08-18T10:22:43.627Z,11.38
2022-08-18T10:28:05.797Z,11.90
2022-08-18T10:31:05.892Z,11.25
2022-08-18T10:34:16.347Z,11.60
2022-08-18T10:36:52.372Z,12.40
2022-08-18T10:39:22.705Z,11.10
2022-08-18T10:41:58.593Z,10.82
2022-08-18T10:44:31.252Z,11.07
2022-08-18T10:47:01.431Z,12.02
2022-08-18T10:49:33.368Z,11.32
2022-08-18T10:52:22.849Z,10.80
2022-08-18T10:55:18.691Z,10.93
2022-08-18T10:58:02.429Z,10.02
2022-08-18T11:00:47.774Z,10.55
2022-08-18T11:03:51.603Z,10.18
2022-08-18T11:06:21.914Z,11.35
2022-08-18T11:08:57.764Z,9.70
2022-08-18T11:11:39.156Z,10.10
2022-08-18T11:14:51.862Z,10.15
2022-08-18T11:17:36.920Z,9.73
2022-08-18T11:20:14.464Z,9.57
2022-08-18T11:22:56.393Z,7.47
2022-08-18T11:25:29.028Z,9.60
2022-08-18T11:27:57.724Z,7.95
2022-08-18T11:30:31.391Z,7.60
2022-08-18T11:33:02.603Z,8.48
2022-08-18T11:38:05.569Z,8.30
2022-08-18T11:41:09.729Z,7.57
2022-08-18T11:43:40.899Z,6.30
2022-08-18T11:46:16.590Z,7.28
2022-08-18T11:48:53.142Z,6.88
2022-08-18T11:51:25.226Z,7.63
2022-08-18T11:53:59.289Z,7.55
2022-08-18T11:56:31.321Z,7.05
2022-08-18T11:59:02.160Z,7.85
2022-08-18T12:01:41.553Z,7.57
2022-08-18T12:04:24.592Z,7.70
2022-08-18T12:07:00.625Z,8.25
2022-08-18T12:10:15.958Z,8.40
2022-08-18T12:12:30.468Z,7.90
2022-08-18T12:17:49.897Z,8.90
2022-08-18T12:20:23.594Z,9.82
2022-08-18T12:22:54.380Z,9.93
2022-08-18T12:25:25.250Z,9.23
2022-08-18T12:27:54.164Z,9.85
2022-08-18T12:30:22.328Z,10.40
2022-08-18T12:33:00.668Z,9.93
2022-08-18T12:35:35.521Z,11.77
2022-08-18T12:38:13.828Z,10.02
2022-08-18T12:40:44.195Z,9.70
2022-08-18T12:43:12.978Z,10.10
2022-08-18T12:45:42.210Z,10.52
2022-08-18T12:48:10.604Z,9.77
2022-08-18T12:50:54.159Z,11.50
2022-08-18T12:53:29.609Z,12.75
2022-08-18T12:56:20.651Z,13.13
2022-08-18T12:58:50.311Z,13.52
2022-08-18T13:01:19.028Z,12.52
2022-08-18T13:04:03.624Z,12.70
2022-08-18T13:06:54.026Z,12.15
2022-08-18T13:09:35.660Z,12.70
2022-08-18T13:12:18.466Z,10.73
2022-08-18T13:14:50.797Z,10.45
2022-08-18T13:17:29.722Z,10.55
2022-08-18T13:20:01.442Z,9.52
2022-08-18T13:22:32.706Z,11.52
2022-08-18T13:25:01.344Z,10.35
2022-08-18T13:27:32.931Z,11.40
2022-08-18T13:30:30.387Z,9.40
2022-08-18T13:32:59.210Z,8.48
2022-08-18T13:35:29.881Z,8.25
2022-08-18T13:38:15.660Z,6.68
2022-08-18T13:40:49.401Z,7.03
2022-08-18T13:43:21.041Z,6.97
2022-08-18T13:45:53.307Z,5.40
2022-08-18T13:48:26.048Z,6.07
2022-08-18T13:50:56.480Z,4.65
2022-08-18T13:53:28.638Z,6.28
2022-08-18T13:55:59.109Z,6.53
2022-08-18T13:58:28.472Z,5.55
2022-08-18T14:01:22.911Z,5.88
2022-08-18T14:03:48.119Z,7.43
2022-08-18T14:06:22.167Z,6.90
2022-08-18T14:08:52.909Z,7.32
2022-08-18T14:11:25.818Z,6.30
2022-08-18T14:13:54.772Z,6.10
2022-08-18T14:16:23.610Z,7.25
2022-08-18T14:19:14.022Z,7.05
2022-08-18T14:22:04.700Z,6.85
2022-08-18T14:24:56.831Z,6.90
2022-08-18T14:27:35.217Z,6.30
2022-08-18T14:30:06.731Z,5.70
2022-08-18T14:32:36.341Z,5.75
2022-08-18T14:35:33.140Z,5.57
2022-08-18T14:37:56.527Z,5.45
2022-08-18T14:40:33.844Z,5.55
2022-08-18T14:43:06.473Z,5.95
2022-08-18T14:45:36.577Z,6.63
2022-08-18T14:48:07.556Z,7.03
2022-08-18T14:50:49.192Z,6.88
2022-08-18T14:53:20.235Z,8.02
2022-08-18T14:55:52.457Z,8.68
2022-08-18T14:58:28.721Z,8.45
2022-08-18T15:00:57.686Z,8.25
2022-08-18T15:03:31.596Z,8.65
2022-08-18T15:06:04.593Z,9.25
2022-08-18T15:08:35.646Z,8.25
2022-08-18T15:11:11.633Z,8.70
2022-08-18T15:13:43.465Z,9.05
2022-08-18T15:16:13.944Z,9.20
2022-08-18T15:18:42.608Z,8.90
2022-08-18T15:21:35.484Z,8.45
2022-08-18T15:24:29.189Z,9.30
2022-08-18T15:27:05.557Z,9.35
2022-08-18T15:29:35.215Z,7.93
2022-08-18T15:32:06.080Z,9.38
2022-08-18T15:34:47.371Z,8.38
2022-08-18T15:37:24.055Z,9.30
2022-08-18T15:40:21.609Z,8.60
2022-08-18T15:43:09.513Z,7.90
2022-08-18T15:45:56.058Z,8.18
2022-08-18T15:48:27.247Z,8.75
2022-08-18T15:50:56.512Z,8.82
2022-08-18T15:53:29.609Z,8.70
2022-08-18T15:56:04.069Z,8.77
2022-08-18T15:58:33.840Z,8.50
2022-08-18T16:01:02.697Z,8.63
2022-08-18T16:03:51.540Z,9.60
2022-08-18T16:06:27.807Z,12.85
2022-08-18T16:09:01.480Z,12.18
2022-08-18T16:11:30.208Z,11.65
2022-08-18T16:14:00.350Z,10.48
2022-08-18T16:16:36.102Z,11.60
2022-08-18T16:19:05.889Z,11.85
2022-08-18T16:21:34.447Z,12.20
2022-08-18T16:24:02.602Z,12.10
2022-08-18T16:26:31.473Z,11.80
2022-08-18T16:29:02.004Z,12.13
2022-08-18T16:31:30.648Z,11.80
2022-08-18T16:33:59.214Z,12.75
2022-08-18T16:36:29.954Z,13.05
2022-08-18T16:38:58.648Z,13.68
2022-08-18T16:41:27.073Z,13.90
2022-08-18T16:43:56.333Z,13.02
2022-08-18T16:46:29.733Z,14.60
2022-08-18T16:48:58.912Z,12.50
2022-08-18T16:51:28.865Z,14.05
2022-08-18T16:53:57.200Z,13.48
2022-08-18T16:56:27.894Z,14.63
2022-08-18T16:59:14.523Z,15.18
2022-08-18T17:02:01.770Z,14.75
2022-08-18T17:04:33.786Z,14.45
2022-08-18T17:07:04.647Z,15.40
2022-08-18T17:09:34.440Z,14.52
2022-08-18T17:12:03.240Z,13.82
2022-08-18T17:14:33.308Z,14.15
2022-08-18T17:17:02.939Z,13.68
2022-08-18T17:19:34.308Z,13.63
2022-08-18T17:22:04.089Z,13.50
2022-08-18T17:24:33.198Z,14.20
2022-08-18T17:27:22.864Z,14.18
2022-08-18T17:30:02.637Z,12.13
2022-08-18T17:32:41.705Z,12.27
2022-08-18T17:35:14.749Z,10.93
2022-08-18T17:37:49.452Z,10.52
2022-08-18T17:40:21.108Z,10.30
2022-08-18T17:42:51.492Z,10.10
2022-08-18T17:45:21.980Z,10.17
2022-08-18T17:47:58.294Z,10.10
2022-08-18T17:50:49.863Z,9.68
2022-08-18T17:53:18.402Z,9.63
2022-08-18T17:55:50.548Z,9.40
2022-08-18T17:58:24.705Z,9.48
2022-08-18T18:00:53.144Z,10.50
2022-08-18T18:03:23.363Z,9.43
2022-08-18T18:05:56.256Z,9.57
2022-08-18T18:08:50.293Z,9.48
2022-08-18T18:11:25.382Z,9.55
2022-08-18T18:13:54.686Z,9.90
2022-08-18T18:16:28.214Z,8.25
2022-08-18T18:19:02.987Z,8.68
2022-08-18T18:21:57.631Z,9.55
2022-08-18T18:24:29.666Z,9.45
2022-08-18T18:26:58.338Z,10.30
2022-08-18T18:29:33.420Z,9.65
2022-08-18T18:32:06.133Z,9.88
2022-08-18T18:37:25.064Z,9.57
2022-08-18T18:39:57.735Z,9.88
2022-08-18T18:42:28.431Z,10.30
2022-08-18T18:44:59.274Z,9.33
2022-08-18T18:47:45.811Z,10.80
2022-08-18T18:50:28.672Z,10.48
2022-08-18T18:53:08.414Z,9.30
2022-08-18T18:55:42.374Z,10.90
2022-08-18T18:58:22.833Z,10.15
2022-08-18T19:00:55.857Z,10.68
2022-08-18T19:03:29.500Z,10.48
2022-08-18T19:06:12.195Z,9.93
2022-08-18T19:08:49.598Z,10.52
2022-08-18T19:11:23.935Z,10.40
2022-08-18T19:13:57.052Z,10.88
2022-08-18T19:16:29.689Z,10.57
2022-08-18T19:19:35.706Z,9.18
2022-08-18T19:22:06.402Z,11.55
2022-08-18T19:24:41.100Z,11.07
2022-08-18T19:27:16.642Z,11.18
2022-08-18T19:29:46.307Z,10.85
2022-08-18T19:32:19.667Z,10.52
2022-08-18T19:34:51.397Z,11.07
2022-08-18T19:37:32.424Z,11.32
2022-08-18T19:40:09.345Z,10.77
2022-08-18T19:42:45.304Z,11.35
2022-08-18T19:45:22.173Z,11.18
2022-08-18T19:47:57.016Z,10.80
2022-08-18T19:50:32.298Z,11.35
2022-08-18T19:53:20.460Z,11.20
2022-08-18T19:56:09.532Z,11.18
2022-08-18T19:59:17.802Z,10.93
2022-08-18T20:01:56.536Z,10.73
2022-08-18T20:04:42.678Z,10.85
2022-08-18T20:07:29.366Z,12.40
2022-08-18T20:10:16.971Z,12.40
2022-08-18T20:13:00.763Z,11.88
2022-08-18T20:15:31.098Z,10.65
2022-08-18T20:18:21.571Z,11.77
2022-08-18T20:21:20.142Z,12.43
2022-08-18T20:24:06.132Z,11.38
2022-08-18T20:26:50.197Z,11.88
2022-08-18T20:29:21.454Z,11.23
2022-08-18T20:32:01.647Z,12.38
2022-08-18T20:34:32.209Z,12.00
2022-08-18T20:37:02.503Z,11.15
2022-08-18T20:39:42.514Z,12.00
2022-08-18T20:42:57.404Z,12.57
2022-08-18T20:45:45.706Z,12.90
2022-08-18T20:48:29.050Z,13.13
2022-08-18T20:51:07.758Z,11.88
2022-08-18T20:54:04.651Z,12.20
2022-08-18T20:56:46.418Z,12.75
2022-08-18T20:59:20.992Z,11.38
2022-08-18T21:01:57.831Z,12.73
2022-08-18T21:04:42.818Z,12.55
2022-08-18T21:07:27.402Z,12.38
2022-08-18T21:10:12.813Z,11.98
2022-08-18T21:12:51.918Z,11.90
2022-08-18T21:15:24.338Z,12.07
2022-08-18T21:17:59.287Z,11.73
2022-08-18T21:20:29.265Z,13.50
2022-08-18T21:23:07.341Z,12.88
2022-08-18T21:25:36.192Z,12.88
2022-08-18T21:28:06.255Z,13.25
2022-08-18T21:30:35.793Z,13.02
2022-08-18T21:33:20.021Z,12.93
2022-08-18T21:35:48.254Z,12.73
2022-08-18T21:38:25.196Z,12.55
2022-08-18T21:40:57.183Z,13.13
2022-08-18T21:43:37.976Z,12.50
2022-08-18T21:46:09.973Z,12.57
2022-08-18T21:48:46.089Z,12.55
2022-08-18T21:51:21.348Z,13.02
2022-08-18T21:53:51.611Z,12.18
2022-08-18T21:56:25.846Z,13.23
2022-08-18T21:59:07.624Z,13.43
2022-08-18T22:04:22.068Z,11.85
2022-08-18T22:06:53.356Z,13.15
2022-08-18T22:09:42.057Z,13.00
2022-08-18T22:12:44.151Z,12.93
2022-08-18T22:17:53.997Z,12.38
2022-08-18T22:20:47.627Z,14.00
2022-08-18T22:23:54.056Z,13.70
2022-08-18T22:26:26.636Z,13.02
2022-08-18T22:29:01.260Z,13.55
2022-08-18T22:31:32.537Z,13.85
2022-08-18T22:34:07.266Z,12.88
2022-08-18T22:36:38.165Z,12.82
2022-08-18T22:41:37.928Z,11.52
2022-08-18T22:44:06.476Z,13.10
2022-08-18T22:46:34.988Z,13.60
2022-08-18T22:49:05.050Z,11.68
2022-08-18T22:51:36.304Z,12.43
2022-08-18T22:54:06.148Z,13.13
2022-08-18T22:56:35.755Z,12.77
2022-08-18T22:59:16.146Z,12.48
2022-08-18T23:01:50.277Z,12.13
2022-08-18T23:04:22.756Z,13.35
2022-08-18T23:06:52.683Z,12.05
2022-08-18T23:09:22.724Z,13.13
2022-08-18T23:11:51.766Z,12.10
2022-08-18T23:14:20.117Z,13.00
2022-08-18T23:16:48.372Z,12.32
2022-08-18T23:19:18.225Z,12.75
2022-08-18T23:21:48.683Z,13.10
2022-08-18T23:24:18.061Z,13.15
2022-08-18T23:26:46.913Z,12.95
2022-08-18T23:29:15.189Z,12.60
2022-08-18T23:31:45.152Z,12.60
2022-08-18T23:34:17.337Z,11.68
2022-08-18T23:36:48.998Z,13.00
2022-08-18T23:41:45.055Z,11.85
2022-08-18T23:44:14.936Z,12.55
2022-08-18T23:46:44.592Z,12.77
2022-08-18T23:49:14.728Z,12.75
2022-08-18T23:51:44.590Z,13.05
2022-08-18T23:54:17.773Z,13.00
2022-08-18T23:56:46.937Z,12.23
2022-08-18T23:59:17.187Z,11.88
